createdAt,value
2023-04-27T00:01:44.015Z,101830.09
2023-04-27T00:04:11.164Z,101831.66
2023-04-27T00:06:38.292Z,101831.50
2023-04-27T00:09:05.352Z,101833.84
2023-04-27T00:11:32.467Z,101825.66
2023-04-27T00:13:59.533Z,101834.16
2023-04-27T00:16:26.811Z,101832.22
2023-04-27T00:18:54.109Z,101833.88
2023-04-27T00:21:21.254Z,101832.00
2023-04-27T00:23:48.320Z,101836.22
2023-04-27T00:26:15.469Z,101840.56
2023-04-27T00:28:42.572Z,101837.88
2023-04-27T00:31:09.577Z,101838.63
2023-04-27T00:33:36.877Z,101838.50
2023-04-27T00:36:04.096Z,101846.22
2023-04-27T00:38:31.255Z,101843.44
2023-04-27T00:41:06.605Z,101847.63
2023-04-27T00:43:41.937Z,101843.94
2023-04-27T00:46:09.615Z,101833.41
2023-04-27T00:48:37.321Z,101838.47
2023-04-27T00:51:05.115Z,101840.16
2023-04-27T00:53:33.131Z,101839.22
2023-04-27T00:56:00.424Z,101836.56
2023-04-27T00:58:27.422Z,101843.41
2023-04-27T01:00:54.600Z,101840.66
2023-04-27T01:03:22.610Z,101836.22
2023-04-27T01:05:49.757Z,101840.50
2023-04-27T01:08:16.938Z,101843.97
2023-04-27T01:10:44.312Z,101843.13
2023-04-27T01:13:11.761Z,101843.88
2023-04-27T01:15:38.903Z,101835.94
2023-04-27T01:18:06.122Z,101843.72
2023-04-27T01:20:33.381Z,101840.16
2023-04-27T01:23:00.485Z,101838.31
2023-04-27T01:25:27.681Z,101840.91
2023-04-27T01:27:54.907Z,101847.03
2023-04-27T01:30:25.303Z,101839.97
2023-04-27T01:32:52.565Z,101842.53
2023-04-27T01:35:19.843Z,101834.50
2023-04-27T01:37:47.492Z,101838.69
2023-04-27T01:40:15.155Z,101834.16
2023-04-27T01:42:42.360Z,101834.00
2023-04-27T01:45:10.713Z,101834.69
2023-04-27T01:47:37.930Z,101826.72
2023-04-27T01:50:05.635Z,101824.91
2023-04-27T01:52:32.685Z,101832.66
2023-04-27T01:54:59.746Z,101826.56
2023-04-27T01:57:26.844Z,101828.28
2023-04-27T01:59:53.898Z,101828.16
2023-04-27T02:02:21.061Z,101829.94
2023-04-27T02:04:48.423Z,101821.19
2023-04-27T02:07:16.208Z,101820.28
2023-04-27T02:09:46.244Z,101822.00
2023-04-27T02:12:13.313Z,101817.59
2023-04-27T02:14:40.360Z,101815.81
2023-04-27T02:17:07.657Z,101824.47
2023-04-27T02:19:34.624Z,101820.97
2023-04-27T02:22:01.770Z,101823.47
2023-04-27T02:24:29.034Z,101813.84
2023-04-27T02:26:56.211Z,101806.00
2023-04-27T02:29:23.292Z,101809.41
2023-04-27T02:31:50.963Z,101810.25
2023-04-27T02:34:18.062Z,101796.28
2023-04-27T02:36:45.004Z,101804.03
2023-04-27T02:39:12.267Z,101797.78
2023-04-27T02:41:39.512Z,101797.69
2023-04-27T02:44:06.704Z,101799.34
2023-04-27T02:46:33.759Z,101805.25
2023-04-27T02:49:00.778Z,101799.94
2023-04-27T02:51:27.872Z,101809.47
2023-04-27T02:53:55.003Z,101811.03
2023-04-27T02:56:22.313Z,101815.34
2023-04-27T02:58:49.621Z,101810.91
2023-04-27T03:01:19.753Z,101810.88
2023-04-27T03:03:50.776Z,101807.25
2023-04-27T03:06:18.076Z,101803.69
2023-04-27T03:08:45.469Z,101801.00
2023-04-27T03:11:12.936Z,101807.81
2023-04-27T03:13:42.636Z,101801.63
2023-04-27T03:16:13.607Z,101801.53
2023-04-27T03:18:42.275Z,101806.69
2023-04-27T03:21:11.354Z,101804.84
2023-04-27T03:23:39.102Z,101809.06
2023-04-27T03:26:14.698Z,101802.81
2023-04-27T04:04:39.684Z,101837.75
2023-04-27T04:22:25.294Z,101836.09
2023-04-27T04:33:36.227Z,101842.88
2023-04-27T05:04:11.989Z,101862.59
2023-04-27T05:06:39.260Z,101863.75
2023-04-27T05:09:06.595Z,101867.66
2023-04-27T05:11:33.595Z,101854.06
2023-04-27T05:14:00.617Z,101864.03
2023-04-27T05:16:27.865Z,101867.09
2023-04-27T05:18:55.081Z,101876.28
2023-04-27T05:21:22.213Z,101873.22
2023-04-27T05:23:50.243Z,101880.47
2023-04-27T05:26:19.107Z,101873.81
2023-04-27T05:28:47.157Z,101872.19
2023-04-27T05:31:14.239Z,101871.56
2023-04-27T05:33:41.454Z,101870.91
2023-04-27T05:36:10.018Z,101879.81
2023-04-27T05:38:40.173Z,101880.94
2023-04-27T05:41:08.126Z,101880.34
2023-04-27T05:43:35.968Z,101886.81
2023-04-27T05:46:03.276Z,101882.06
2023-04-27T05:48:30.379Z,101881.59
2023-04-27T05:51:04.481Z,101888.16
2023-04-27T05:53:34.252Z,101891.06
2023-04-27T05:56:01.364Z,101895.75
2023-04-27T05:58:28.533Z,101897.03
2023-04-27T06:00:56.662Z,101896.50
2023-04-27T06:03:23.964Z,101898.56
2023-04-27T06:05:59.272Z,101894.47
2023-04-27T06:08:27.423Z,101893.00
2023-04-27T06:10:54.689Z,101908.13
2023-04-27T06:13:21.994Z,101897.09
2023-04-27T06:15:49.204Z,101894.81
2023-04-27T06:18:16.727Z,101883.88
2023-04-27T06:20:43.776Z,101886.91
2023-04-27T06:23:11.186Z,101878.63
2023-04-27T06:25:40.454Z,101877.25
2023-04-27T06:28:07.701Z,101883.00
2023-04-27T06:30:35.247Z,101873.81
2023-04-27T06:33:02.795Z,101882.16
2023-04-27T06:35:29.987Z,101890.50
2023-04-27T06:37:59.010Z,101895.16
2023-04-27T06:40:26.992Z,101896.28
2023-04-27T06:42:54.091Z,101897.53
2023-04-27T06:45:21.261Z,101888.31
2023-04-27T06:47:48.260Z,101894.91
2023-04-27T06:50:16.455Z,101893.34
2023-04-27T06:52:43.713Z,101881.47
2023-04-27T06:55:10.953Z,101892.41
2023-04-27T06:57:38.085Z,101892.81
2023-04-27T07:00:06.397Z,101898.31
2023-04-27T07:02:33.538Z,101896.75
2023-04-27T07:05:01.035Z,101901.34
2023-04-27T07:07:28.201Z,101890.19
2023-04-27T07:09:55.689Z,101892.06
2023-04-27T07:12:22.764Z,101887.00
2023-04-27T07:14:51.021Z,101886.31
2023-04-27T07:17:18.116Z,101887.38
2023-04-27T07:19:45.192Z,101884.06
2023-04-27T07:22:12.480Z,101887.66
2023-04-27T07:24:39.476Z,101892.19
2023-04-27T07:27:06.499Z,101899.47
2023-04-27T07:29:34.163Z,101899.91
2023-04-27T07:32:01.490Z,101903.69
2023-04-27T07:34:41.071Z,101898.72
2023-04-27T07:37:17.552Z,101890.28
2023-04-27T07:39:49.411Z,101896.63
2023-04-27T07:42:16.459Z,101891.53
2023-04-27T07:44:43.529Z,101898.75
2023-04-27T07:47:10.785Z,101902.47
2023-04-27T07:49:38.358Z,101893.91
2023-04-27T07:52:05.794Z,101889.72
2023-04-27T07:54:32.799Z,101895.13
2023-04-27T07:56:59.958Z,101887.41
2023-04-27T07:59:30.268Z,101881.44
2023-04-27T08:02:10.859Z,101880.72
2023-04-27T08:04:44.600Z,101879.97
2023-04-27T08:07:12.785Z,101885.38
2023-04-27T08:09:39.992Z,101885.50
2023-04-27T08:12:07.435Z,101889.22
2023-04-27T08:14:36.045Z,101884.97
2023-04-27T08:17:03.265Z,101894.78
2023-04-27T08:19:30.538Z,101897.59
2023-04-27T08:21:57.562Z,101887.13
2023-04-27T08:24:24.533Z,101899.53
2023-04-27T08:26:51.592Z,101889.94
2023-04-27T08:29:26.954Z,101890.97
2023-04-27T08:31:57.223Z,101884.03
2023-04-27T08:34:24.490Z,101875.34
2023-04-27T08:36:51.919Z,101862.19
2023-04-27T08:39:19.126Z,101863.97
2023-04-27T08:41:46.482Z,101860.50
2023-04-27T08:44:13.591Z,101861.47
2023-04-27T08:46:41.057Z,101857.09
2023-04-27T08:49:08.727Z,101858.91
2023-04-27T08:51:36.136Z,101859.81
2023-04-27T08:54:03.669Z,101868.72
2023-04-27T08:56:31.510Z,101858.19
2023-04-27T08:59:00.704Z,101867.94
2023-04-27T09:01:27.908Z,101865.34
2023-04-27T09:04:07.879Z,101864.50
2023-04-27T09:06:36.638Z,101863.72
2023-04-27T09:09:04.368Z,101856.66
2023-04-27T09:11:33.995Z,101852.25
2023-04-27T09:14:03.836Z,101860.22
2023-04-27T09:16:31.998Z,101860.25
2023-04-27T09:18:59.349Z,101846.13
2023-04-27T09:21:31.069Z,101847.91
2023-04-27T09:23:58.143Z,101852.31
2023-04-27T09:26:27.948Z,101851.44
2023-04-27T09:28:58.889Z,101848.78
2023-04-27T09:31:33.671Z,101848.75
2023-04-27T09:34:01.272Z,101849.63
2023-04-27T09:36:30.686Z,101851.41
2023-04-27T09:39:02.532Z,101849.63
2023-04-27T09:41:31.361Z,101840.81
2023-04-27T09:43:59.034Z,101846.94
2023-04-27T09:46:28.774Z,101838.06
2023-04-27T09:48:57.558Z,101832.75
2023-04-27T09:51:24.985Z,101845.13
2023-04-27T09:53:56.836Z,101836.28
2023-04-27T09:56:38.700Z,101836.25
2023-04-27T09:59:45.552Z,101831.75
2023-04-27T10:02:24.676Z,101830.78
2023-04-27T10:05:30.074Z,101827.16
2023-04-27T10:07:57.643Z,101827.91
2023-04-27T10:10:24.653Z,101829.56
2023-04-27T10:13:02.085Z,101832.16
2023-04-27T10:15:30.525Z,101829.44
2023-04-27T10:18:05.754Z,101820.41
2023-04-27T10:20:37.605Z,101827.25
2023-04-27T10:23:04.892Z,101829.78
2023-04-27T10:25:41.342Z,101835.91
2023-04-27T10:28:09.074Z,101833.25
2023-04-27T10:30:38.422Z,101837.69
2023-04-27T10:33:10.962Z,101841.22
2023-04-27T10:35:41.227Z,101831.41
2023-04-27T10:38:21.778Z,101834.91
2023-04-27T10:41:05.014Z,101835.72
2023-04-27T10:43:35.520Z,101833.88
2023-04-27T10:46:15.217Z,101822.28
2023-04-27T10:48:45.629Z,101815.25
2023-04-27T10:51:17.488Z,101825.97
2023-04-27T10:53:44.857Z,101817.97
2023-04-27T10:56:13.081Z,101810.97
2023-04-27T10:58:48.648Z,101810.22
2023-04-27T11:01:27.326Z,101796.97
2023-04-27T11:03:59.426Z,101797.91
2023-04-27T11:06:28.510Z,101794.53
2023-04-27T11:08:55.705Z,101785.63
2023-04-27T11:11:23.866Z,101783.88
2023-04-27T11:13:53.142Z,101784.75
2023-04-27T11:16:21.014Z,101790.94
2023-04-27T11:18:48.496Z,101777.75
2023-04-27T11:21:18.424Z,101784.00
2023-04-27T11:23:47.923Z,101776.25
2023-04-27T11:26:17.624Z,101786.16
2023-04-27T11:29:09.798Z,101774.78
2023-04-27T11:31:49.452Z,101772.16
2023-04-27T11:34:20.053Z,101766.88
2023-04-27T11:37:17.364Z,101755.34
2023-04-27T11:39:46.378Z,101761.56
2023-04-27T11:42:22.602Z,101759.75
2023-04-27T11:45:09.427Z,101767.69
2023-04-27T11:47:36.582Z,101773.81
2023-04-27T11:50:08.068Z,101769.34
2023-04-27T11:52:37.359Z,101751.63
2023-04-27T11:55:05.409Z,101767.53
2023-04-27T11:57:36.884Z,101766.59
2023-04-27T12:00:10.997Z,101768.25
2023-04-27T12:02:38.699Z,101762.84
2023-04-27T12:05:07.773Z,101761.97
2023-04-27T12:07:35.347Z,101766.31
2023-04-27T12:10:02.389Z,101760.13
2023-04-27T12:12:29.512Z,101755.69
2023-04-27T12:14:56.829Z,101745.06
2023-04-27T12:17:24.012Z,101749.38
2023-04-27T12:19:51.045Z,101742.28
2023-04-27T12:22:18.081Z,101745.69
2023-04-27T12:24:45.038Z,101752.72
2023-04-27T12:27:13.198Z,101744.81
2023-04-27T12:29:40.262Z,101752.78
2023-04-27T12:32:07.806Z,101740.41
2023-04-27T12:34:34.946Z,101734.19
2023-04-27T12:37:02.030Z,101741.25
2023-04-27T12:39:29.711Z,101741.22
2023-04-27T12:41:58.259Z,101735.06
2023-04-27T12:44:25.540Z,101727.03
2023-04-27T12:46:52.743Z,101734.06
2023-04-27T12:49:19.871Z,101733.13
2023-04-27T12:51:48.000Z,101727.78
2023-04-27T12:54:15.312Z,101725.91
2023-04-27T12:56:42.634Z,101730.25
2023-04-27T12:59:09.893Z,101722.16
2023-04-27T13:01:37.355Z,101715.75
2023-04-27T13:04:07.198Z,101727.19
2023-04-27T13:06:34.561Z,101721.94
2023-04-27T13:09:02.573Z,101709.47
2023-04-27T13:11:29.812Z,101717.25
2023-04-27T13:13:56.860Z,101715.31
2023-04-27T13:16:25.808Z,101713.44
2023-04-27T13:18:55.611Z,101712.47
2023-04-27T13:21:23.279Z,101721.09
2023-04-27T13:23:51.313Z,101716.38
2023-04-27T13:26:19.098Z,101704.44
2023-04-27T13:28:46.259Z,101705.59
2023-04-27T13:31:13.361Z,101691.88
2023-04-27T13:33:44.506Z,101691.69
2023-04-27T13:36:12.775Z,101685.19
2023-04-27T13:38:40.479Z,101675.22
2023-04-27T13:41:09.209Z,101681.97
2023-04-27T13:43:36.285Z,101683.69
2023-04-27T13:46:03.529Z,101680.00
2023-04-27T13:48:31.440Z,101674.72
2023-04-27T13:50:58.956Z,101673.13
2023-04-27T13:53:27.037Z,101669.72
2023-04-27T13:55:56.106Z,101674.94
2023-04-27T13:58:25.644Z,101662.38
2023-04-27T14:00:53.787Z,101662.09
2023-04-27T14:03:22.795Z,101661.84
2023-04-27T14:05:51.416Z,101651.88
2023-04-27T14:08:19.394Z,101645.22
2023-04-27T14:10:46.515Z,101645.00
2023-04-27T14:13:13.872Z,101651.00
2023-04-27T14:15:41.759Z,101638.47
2023-04-27T14:18:10.102Z,101633.13
2023-04-27T14:20:38.832Z,101633.91
2023-04-27T14:23:07.079Z,101626.66
2023-04-27T14:25:35.004Z,101622.03
2023-04-27T14:28:05.680Z,101621.09
2023-04-27T14:30:33.993Z,101609.56
2023-04-27T14:33:01.580Z,101609.38
2023-04-27T14:35:28.817Z,101617.34
2023-04-27T14:37:57.279Z,101608.38
2023-04-27T14:40:24.415Z,101603.72
2023-04-27T14:42:51.611Z,101608.00
2023-04-27T14:45:19.021Z,101594.56
2023-04-27T14:47:46.488Z,101593.78
2023-04-27T14:50:13.537Z,101593.41
2023-04-27T14:52:40.555Z,101584.00
2023-04-27T14:55:08.578Z,101581.56
2023-04-27T14:57:36.785Z,101580.63
2023-04-27T15:00:09.987Z,101575.50
2023-04-27T15:02:38.113Z,101583.94
2023-04-27T15:05:07.104Z,101578.69
2023-04-27T15:07:34.231Z,101584.94
2023-04-27T15:10:01.273Z,101590.53
2023-04-27T15:12:28.338Z,101586.34
2023-04-27T15:14:55.448Z,101600.16
2023-04-27T15:17:22.600Z,101591.88
2023-04-27T15:19:49.597Z,101581.53
2023-04-27T15:22:16.677Z,101590.59
2023-04-27T15:24:43.677Z,101584.34
2023-04-27T15:27:10.777Z,101585.88
2023-04-27T15:29:37.777Z,101587.44
2023-04-27T15:32:05.261Z,101591.69
2023-04-27T15:34:32.656Z,101592.56
2023-04-27T15:37:01.342Z,101576.78
2023-04-27T15:39:28.317Z,101576.16
2023-04-27T15:41:56.526Z,101571.91
2023-04-27T15:44:23.552Z,101568.69
2023-04-27T15:46:50.682Z,101563.69
2023-04-27T15:49:17.668Z,101560.41
2023-04-27T15:51:44.766Z,101558.97
2023-04-27T15:54:12.357Z,101554.59
2023-04-27T15:56:39.450Z,101547.59
2023-04-27T15:59:07.130Z,101548.44
2023-04-27T16:01:34.339Z,101554.44
2023-04-27T16:04:01.534Z,101549.00
2023-04-27T16:06:36.744Z,101548.69
2023-04-27T16:09:04.894Z,101535.75
2023-04-27T16:11:32.130Z,101534.41
2023-04-27T16:13:59.560Z,101524.25
2023-04-27T16:16:27.121Z,101523.13
2023-04-27T16:18:54.408Z,101524.09
2023-04-27T16:21:21.813Z,101517.16
2023-04-27T16:23:50.961Z,101522.72
2023-04-27T16:26:21.094Z,101512.25
2023-04-27T16:28:48.258Z,101511.59
2023-04-27T16:31:16.171Z,101497.56
2023-04-27T16:33:43.229Z,101494.28
2023-04-27T16:36:11.774Z,101494.50
2023-04-27T16:38:39.503Z,101495.63
2023-04-27T16:41:06.682Z,101486.97
2023-04-27T16:43:33.975Z,101489.81
2023-04-27T16:46:01.291Z,101495.50
2023-04-27T16:48:28.592Z,101483.44
2023-04-27T16:50:56.190Z,101486.44
2023-04-27T16:53:23.676Z,101479.72
2023-04-27T16:55:50.762Z,101474.69
2023-04-27T16:58:17.829Z,101470.50
2023-04-27T17:00:44.946Z,101468.94
2023-04-27T17:03:12.260Z,101459.50
2023-04-27T17:05:39.462Z,101457.22
2023-04-27T17:08:06.641Z,101461.94
2023-04-27T17:10:35.737Z,101451.59
2023-04-27T17:13:07.946Z,101457.13
2023-04-27T17:15:35.071Z,101455.53
2023-04-27T17:18:05.496Z,101452.16
2023-04-27T17:20:32.755Z,101454.94
2023-04-27T17:23:00.185Z,101448.84
2023-04-27T17:25:27.413Z,101454.25
2023-04-27T17:27:54.514Z,101455.22
2023-04-27T17:30:21.606Z,101449.13
2023-04-27T17:32:48.778Z,101450.97
2023-04-27T17:35:15.983Z,101445.75
2023-04-27T17:37:43.087Z,101441.44
2023-04-27T17:40:11.127Z,101433.50
2023-04-27T17:42:38.778Z,101429.16
2023-04-27T17:45:06.854Z,101424.81
2023-04-27T17:47:34.119Z,101425.72
2023-04-27T17:50:01.329Z,101433.72
2023-04-27T17:52:28.524Z,101431.09
2023-04-27T17:54:56.227Z,101435.53
2023-04-27T17:57:23.455Z,101431.13
2023-04-27T17:59:51.037Z,101428.50
2023-04-27T18:02:18.398Z,101429.44
2023-04-27T18:04:45.673Z,101427.69
2023-04-27T18:07:13.008Z,101420.66
2023-04-27T18:09:40.602Z,101415.38
2023-04-27T18:12:11.266Z,101419.81
2023-04-27T18:14:39.423Z,101411.91
2023-04-27T18:17:06.744Z,101410.16
2023-04-27T18:19:34.164Z,101412.84
2023-04-27T18:22:01.488Z,101408.47
2023-04-27T18:24:28.641Z,101411.13
2023-04-27T18:26:55.900Z,101412.03
2023-04-27T18:29:23.358Z,101405.91
2023-04-27T18:31:50.707Z,101404.16
2023-04-27T18:34:17.966Z,101403.31
2023-04-27T18:36:51.577Z,101413.00
2023-04-27T18:39:20.467Z,101419.19
2023-04-27T18:41:48.250Z,101419.19
2023-04-27T18:44:16.396Z,101418.31
2023-04-27T18:46:45.204Z,101421.88
2023-04-27T18:49:13.190Z,101424.53
2023-04-27T18:51:40.442Z,101426.28
2023-04-27T18:54:10.281Z,101428.97
2023-04-27T18:56:37.500Z,101430.75
2023-04-27T18:59:05.531Z,101432.50
2023-04-27T19:01:32.726Z,101433.38
2023-04-27T19:03:59.827Z,101432.50
2023-04-27T19:06:27.587Z,101432.53
2023-04-27T19:08:54.709Z,101423.72
2023-04-27T19:11:22.469Z,101422.81
2023-04-27T19:13:50.668Z,101423.72
2023-04-27T19:16:18.100Z,101411.41
2023-04-27T19:18:45.259Z,101410.50
2023-04-27T19:21:12.841Z,101405.22
2023-04-27T19:23:40.240Z,101414.94
2023-04-27T19:26:13.677Z,101416.69
2023-04-27T19:28:41.501Z,101399.09
2023-04-27T19:31:08.892Z,101400.88
2023-04-27T19:33:36.540Z,101407.91
2023-04-27T19:36:03.793Z,101401.75
2023-04-27T19:38:31.013Z,101407.03
2023-04-27T19:40:58.097Z,101399.13
2023-04-27T19:43:25.244Z,101407.94
2023-04-27T19:45:52.357Z,101412.34
2023-04-27T19:48:19.396Z,101414.97
2023-04-27T19:50:46.598Z,101405.31
2023-04-27T19:53:13.845Z,101409.69
2023-04-27T19:55:42.368Z,101407.94
2023-04-27T19:58:09.593Z,101402.66
2023-04-27T20:00:36.759Z,101401.78
2023-04-27T20:03:06.384Z,101394.75
2023-04-27T20:05:35.058Z,101390.31
2023-04-27T20:08:02.278Z,101386.81
2023-04-27T20:10:29.410Z,101386.81
2023-04-27T20:12:57.297Z,101384.19
2023-04-27T20:15:25.326Z,101385.91
2023-04-27T20:17:53.776Z,101392.09
2023-04-27T20:20:21.327Z,101395.63
2023-04-27T20:22:48.718Z,101394.75
2023-04-27T20:25:15.914Z,101380.66
2023-04-27T20:27:43.003Z,101383.28
2023-04-27T20:30:10.989Z,101378.00
2023-04-27T20:32:40.318Z,101374.50
2023-04-27T20:35:11.674Z,101358.59
2023-04-27T20:37:40.207Z,101354.22
2023-04-27T20:40:11.920Z,101348.94
2023-04-27T20:42:40.994Z,101332.22
2023-04-27T20:45:11.675Z,101339.25
2023-04-27T20:47:38.807Z,101327.81
2023-04-27T20:50:08.079Z,101328.69
2023-04-27T20:52:36.216Z,101326.94
2023-04-27T20:55:05.306Z,101320.78
2023-04-27T20:57:32.586Z,101317.25
2023-04-27T20:59:59.620Z,101313.72
2023-04-27T21:02:26.846Z,101314.63
2023-04-27T21:04:53.964Z,101305.81
2023-04-27T21:07:21.012Z,101299.66
2023-04-27T21:09:48.037Z,101296.13
2023-04-27T21:12:17.259Z,101289.09
2023-04-27T21:14:44.945Z,101282.03
2023-04-27T21:17:15.130Z,101282.03
2023-04-27T21:19:42.374Z,101276.75
2023-04-27T21:22:09.816Z,101270.63
2023-04-27T21:24:39.773Z,101273.25
2023-04-27T21:27:06.782Z,101272.38
2023-04-27T21:29:38.544Z,101272.38
2023-04-27T21:32:06.135Z,101260.94
2023-04-27T21:34:33.216Z,101255.66
2023-04-27T21:37:00.487Z,101253.03
2023-04-27T21:39:27.600Z,101252.16
2023-04-27T21:41:54.653Z,101237.22
2023-04-27T21:44:21.676Z,101232.78
2023-04-27T21:46:49.077Z,101245.09
2023-04-27T21:49:16.201Z,101241.59
2023-04-27T21:51:43.336Z,101239.81
2023-04-27T21:54:10.923Z,101228.38
2023-04-27T21:56:37.960Z,101224.88
2023-04-27T21:59:05.461Z,101231.03
2023-04-27T22:01:33.322Z,101236.31
2023-04-27T22:04:01.088Z,101231.91
2023-04-27T22:06:28.226Z,101223.13
2023-04-27T22:08:58.531Z,101224.00
2023-04-27T22:11:25.958Z,101220.47
2023-04-27T22:13:53.258Z,101223.13
2023-04-27T22:16:20.320Z,101216.97
2023-04-27T22:18:49.925Z,101209.06
2023-04-27T22:21:16.981Z,101217.84
2023-04-27T22:23:44.004Z,101213.44
2023-04-27T22:26:11.179Z,101211.69
2023-04-27T22:28:38.253Z,101206.44
2023-04-27T22:31:06.024Z,101211.69
2023-04-27T22:33:33.212Z,101203.78
2023-04-27T22:36:00.642Z,101194.09
2023-04-27T22:38:27.662Z,101187.97
2023-04-27T22:40:54.655Z,101188.84
2023-04-27T22:43:21.768Z,101175.66
2023-04-27T22:45:48.834Z,101181.81
2023-04-27T22:48:16.514Z,101179.16
2023-04-27T22:50:43.489Z,101182.69
2023-04-27T22:53:10.593Z,101178.28
2023-04-27T22:55:37.626Z,101172.13
2023-04-27T22:58:04.797Z,101177.41
2023-04-27T23:00:31.894Z,101180.03
2023-04-27T23:03:00.543Z,101177.41
2023-04-27T23:05:29.246Z,101175.66
2023-04-27T23:07:56.301Z,101161.56
2023-04-27T23:10:23.520Z,101162.44
2023-04-27T23:12:50.789Z,101163.31
2023-04-27T23:15:17.817Z,101164.19
2023-04-27T23:17:45.098Z,101164.19
2023-04-27T23:20:26.745Z,101170.34
2023-04-27T23:22:54.865Z,101164.19
2023-04-27T23:25:22.254Z,101167.66
2023-04-27T23:27:52.134Z,101160.66
2023-04-27T23:30:21.407Z,101163.25
2023-04-27T23:32:48.721Z,101153.56
2023-04-27T23:35:15.814Z,101150.00
2023-04-27T23:37:42.906Z,101149.09
2023-04-27T23:40:10.681Z,101147.31
2023-04-27T23:42:37.714Z,101139.41
2023-04-27T23:45:05.246Z,101135.84
2023-04-27T23:47:33.919Z,101133.19
2023-04-27T23:50:02.260Z,101119.13
2023-04-27T23:52:29.352Z,101102.44
2023-04-27T23:54:58.358Z,101105.03
2023-04-27T23:57:25.499Z,101105.03
2023-04-27T23:59:53.992Z,101097.97
